Time;durP1;ratioP1;P1;durP2;ratioP2;P2;SDS_P1;SDS_P2;PMS_P1;PMS_P2;Temp;Humidity;BMP_temperature;BMP_pressure;BME280_temperature;BME280_humidity;BME280_pressure;Samples;Min_cycle;Max_cycle;Signal;HPM_P1;HPM_P2
2022/01/05 00:02:42;;;;;;;;;;;3.50;99.90;;;;;;8422737;28;19924;-71
2022/01/05 00:06:44;;;;;;;;;;;3.50;99.90;;;;;;8396111;28;19924;-70
2022/01/05 00:10:45;;;;;;;;;;;3.50;99.90;;;;;;8409200;28;19935;-71
2022/01/05 00:14:47;;;;;;;;;;;3.50;99.90;;;;;;8402246;28;19959;-70
2022/01/05 00:18:48;;;;;;;;;;;3.50;99.90;;;;;;8405227;28;20278;-70
2022/01/05 00:22:50;;;;;;;;;;;3.50;99.90;;;;;;8409513;28;20392;-70
2022/01/05 00:26:52;;;;;;;;;;;3.40;99.90;;;;;;8418767;28;19925;-70
2022/01/05 00:30:53;;;;;;;;;;;3.40;99.90;;;;;;8423319;28;20401;-70
2022/01/05 00:34:55;;;;;;;;;;;3.40;99.90;;;;;;8413164;28;19975;-70
2022/01/05 00:38:56;;;;;;;;;;;3.30;99.90;;;;;;8405791;28;19925;-70
2022/01/05 00:42:59;;;;;;;;;;;3.30;99.90;;;;;;8395185;28;20415;-70
2022/01/05 00:47:01;;;;;;;;;;;3.30;99.90;;;;;;8427349;28;19935;-70
2022/01/05 00:51:03;;;;;;;;;;;3.30;99.90;;;;;;8423023;28;19964;-70
2022/01/05 00:55:05;;;;;;;;;;;3.30;99.90;;;;;;8405090;28;19935;-70
2022/01/05 00:59:06;;;;;;;;;;;3.30;99.90;;;;;;8423481;28;19928;-70
2022/01/05 01:03:08;;;;;;;;;;;3.30;99.90;;;;;;8404390;28;19959;-71
2022/01/05 01:07:10;;;;;;;;;;;3.30;99.90;;;;;;8407426;28;20000;-70
2022/01/05 01:11:11;;;;;;;;;;;3.30;99.90;;;;;;8426363;28;19924;-70
2022/01/05 01:15:13;;;;;;;;;;;3.20;99.90;;;;;;8423156;28;19959;-71
2022/01/05 01:19:15;;;;;;;;;;;3.20;99.90;;;;;;8421132;28;19924;-70
2022/01/05 01:23:24;;;;;;;;;;;3.10;99.90;;;;;;8424357;28;19960;-70
2022/01/05 01:27:25;;;;;;;;;;;3.00;99.90;;;;;;8426410;28;19928;-71
2022/01/05 01:31:28;;;;;;;;;;;3.00;99.90;;;;;;8425084;28;19931;-70
2022/01/05 01:35:29;;;;;;;;;;;3.00;99.90;;;;;;8408750;28;19924;-70
2022/01/05 01:39:31;;;;;;;;;;;3.00;99.90;;;;;;8426367;28;19932;-70
2022/01/05 01:43:33;;;;;;;;;;;3.00;99.90;;;;;;8418311;28;19934;-70
2022/01/05 01:47:35;;;;;;;;;;;2.90;99.90;;;;;;8417436;28;20376;-70
2022/01/05 01:51:36;;;;;;;;;;;3.00;99.90;;;;;;8427570;28;19933;-70
2022/01/05 01:55:38;;;;;;;;;;;3.00;99.90;;;;;;8405501;28;20359;-70
2022/01/05 01:59:40;;;;;;;;;;;2.90;99.90;;;;;;8421770;28;20307;-70
2022/01/05 02:03:41;;;;;;;;;;;2.90;99.90;;;;;;8401636;28;19940;-70
2022/01/05 02:07:43;;;;;;;;;;;2.90;99.90;;;;;;8408241;28;19977;-70
2022/01/05 02:11:45;;;;;;;;;;;2.90;99.90;;;;;;8426164;28;19967;-70
2022/01/05 02:15:46;;;;;;;;;;;3.00;99.90;;;;;;8408070;28;19928;-70
2022/01/05 02:19:48;;;;;;;;;;;3.00;99.90;;;;;;8401751;28;19931;-70
2022/01/05 02:23:50;;;;;;;;;;;3.00;99.90;;;;;;8417189;28;19971;-70
2022/01/05 02:27:53;;;;;;;;;;;3.00;99.90;;;;;;8400661;28;19928;-70
2022/01/05 02:31:57;;;;;;;;;;;3.10;99.90;;;;;;8421302;28;19925;-70
2022/01/05 02:35:58;;;;;;;;;;;3.10;99.90;;;;;;8400178;28;19925;-70
2022/01/05 02:40:00;;;;;;;;;;;3.10;99.90;;;;;;8401328;28;20283;-70
2022/01/05 02:44:02;;;;;;;;;;;3.10;99.90;;;;;;8420326;28;20007;-70
2022/01/05 02:48:04;;;;;;;;;;;3.10;99.90;;;;;;8405688;28;19932;-70
2022/01/05 02:52:05;;;;;;;;;;;3.10;99.90;;;;;;8407840;28;19971;-69
2022/01/05 02:56:07;;;;;;;;;;;3.10;99.90;;;;;;8405605;28;20288;-70
2022/01/05 03:00:10;;;;;;;;;;;3.00;99.90;;;;;;8405552;28;19967;-70
2022/01/05 03:04:11;;;;;;;;;;;3.10;99.90;;;;;;8422224;28;20356;-70
2022/01/05 03:08:13;;;;;;;;;;;3.10;99.90;;;;;;8425435;28;19931;-70
2022/01/05 03:12:15;;;;;;;;;;;3.10;99.90;;;;;;8429352;28;20327;-70
2022/01/05 03:16:16;;;;;;;;;;;3.00;99.90;;;;;;8428520;28;20368;-70
2022/01/05 03:20:19;;;;;;;;;;;3.00;99.90;;;;;;8426373;28;19924;-71
2022/01/05 03:24:21;;;;;;;;;;;2.90;99.90;;;;;;8425805;28;20529;-70
2022/01/05 03:28:22;;;;;;;;;;;2.90;99.90;;;;;;8430698;28;19935;-71
2022/01/05 03:32:27;;;;;;;;;;;2.90;99.90;;;;;;8425122;28;20276;-70
2022/01/05 03:36:29;;;;;;;;;;;2.90;99.90;;;;;;8410996;28;19924;-70
2022/01/05 03:40:31;;;;;;;;;;;2.90;99.90;;;;;;8430057;28;20275;-70
2022/01/05 03:44:34;;;;;;;;;;;2.80;99.90;;;;;;8412963;28;19925;-70
2022/01/05 03:48:36;;;;;;;;;;;2.80;99.90;;;;;;8425945;28;19928;-71
2022/01/05 03:52:37;;;;;;;;;;;2.80;99.90;;;;;;8409220;28;19954;-70
2022/01/05 03:56:39;;;;;;;;;;;2.80;99.90;;;;;;8427190;28;19931;-70
2022/01/05 04:00:42;;;;;;;;;;;2.80;99.90;;;;;;8427104;28;19931;-71
2022/01/05 04:04:46;;;;;;;;;;;2.80;99.90;;;;;;8426751;28;20389;-70
2022/01/05 04:08:47;;;;;;;;;;;2.80;99.90;;;;;;8429916;28;19924;-71
2022/01/05 04:12:49;;;;;;;;;;;2.80;99.90;;;;;;8405493;28;19924;-70
2022/01/05 04:16:50;;;;;;;;;;;2.80;99.90;;;;;;8424775;28;19924;-70
2022/01/05 04:20:52;;;;;;;;;;;2.80;99.90;;;;;;8419840;28;19924;-70
2022/01/05 04:24:54;;;;;;;;;;;2.80;99.90;;;;;;8428083;28;19924;-70
2022/01/05 04:28:55;;;;;;;;;;;2.80;99.90;;;;;;8411257;28;19942;-71
2022/01/05 04:32:57;;;;;;;;;;;2.80;99.90;;;;;;8428660;28;19932;-70
2022/01/05 04:37:19;;;;;;;;;;;2.80;99.90;;;;;;8404175;28;20314;-70
2022/01/05 04:41:21;;;;;;;;;;;2.80;99.90;;;;;;8410695;28;19924;-70
2022/01/05 04:45:23;;;;;;;;;;;2.90;99.90;;;;;;8409170;28;19985;-70
2022/01/05 04:49:24;;;;;;;;;;;2.90;99.90;;;;;;8428809;28;19931;-71
2022/01/05 04:53:26;;;;;;;;;;;3.00;99.90;;;;;;8420011;28;19943;-70
2022/01/05 04:57:27;;;;;;;;;;;3.00;99.90;;;;;;8408388;28;19924;-70
2022/01/05 05:01:29;;;;;;;;;;;3.10;99.90;;;;;;8406357;28;20324;-70
2022/01/05 05:05:31;;;;;;;;;;;3.10;99.90;;;;;;8403114;28;19955;-70
2022/01/05 05:09:33;;;;;;;;;;;3.10;99.90;;;;;;8426166;28;19931;-70
2022/01/05 05:13:34;;;;;;;;;;;3.20;99.90;;;;;;8408594;28;20386;-70
2022/01/05 05:17:36;;;;;;;;;;;3.30;99.90;;;;;;8403510;28;19935;-70
2022/01/05 05:21:37;;;;;;;;;;;3.40;99.90;;;;;;8421931;28;20008;-70
2022/01/05 05:25:39;;;;;;;;;;;3.50;99.90;;;;;;8410520;28;19967;-70
2022/01/05 05:29:40;;;;;;;;;;;3.60;99.90;;;;;;8423048;28;19932;-70
2022/01/05 05:33:42;;;;;;;;;;;3.70;99.90;;;;;;8421012;28;19931;-71
2022/01/05 05:37:44;;;;;;;;;;;3.70;99.90;;;;;;8425764;28;19935;-71
2022/01/05 05:41:45;;;;;;;;;;;3.80;99.90;;;;;;8426482;28;19924;-70
2022/01/05 05:45:47;;;;;;;;;;;3.90;99.90;;;;;;8422943;28;19924;-70
2022/01/05 05:49:49;;;;;;;;;;;3.90;99.90;;;;;;8421715;28;19977;-70
2022/01/05 05:53:50;;;;;;;;;;;4.00;99.90;;;;;;8424450;28;19974;-70
2022/01/05 05:57:52;;;;;;;;;;;4.10;99.90;;;;;;8425438;28;19924;-70
2022/01/05 06:01:53;;;;;;;;;;;4.10;99.90;;;;;;8393839;28;19924;-70
2022/01/05 06:05:55;;;;;;;;;;;4.10;99.90;;;;;;8425783;28;19924;-70
2022/01/05 06:09:58;;;;;;;;;;;4.10;99.90;;;;;;8422114;28;19931;-70
2022/01/05 06:14:00;;;;;;;;;;;4.20;99.90;;;;;;8422185;28;19924;-70
2022/01/05 06:18:02;;;;;;;;;;;4.20;99.90;;;;;;8423232;28;20038;-70
2022/01/05 06:22:04;;;;;;;;;;;4.20;99.90;;;;;;8403138;28;19968;-70
2022/01/05 06:26:05;;;;;;;;;;;4.30;99.90;;;;;;8424312;28;20002;-70
2022/01/05 06:30:08;;;;;;;;;;;4.30;99.90;;;;;;8422413;28;19971;-70
2022/01/05 06:34:10;;;;;;;;;;;4.30;99.90;;;;;;8423713;28;20037;-70
2022/01/05 06:38:11;;;;;;;;;;;4.40;99.90;;;;;;8426272;28;19975;-70
2022/01/05 06:42:13;;;;;;;;;;;4.30;99.90;;;;;;8424281;28;19928;-70
2022/01/05 06:46:15;;;;;;;;;;;4.30;99.90;;;;;;8431733;28;19931;-70
2022/01/05 06:50:16;;;;;;;;;;;4.30;99.90;;;;;;8425625;28;19972;-71
2022/01/05 06:54:18;;;;;;;;;;;4.40;99.90;;;;;;8406842;28;19924;-70
2022/01/05 06:58:19;;;;;;;;;;;4.40;99.90;;;;;;8413630;28;20292;-70
2022/01/05 07:02:21;;;;;;;;;;;4.40;99.90;;;;;;8411095;28;19924;-70
2022/01/05 07:06:23;;;;;;;;;;;4.30;99.90;;;;;;8406438;28;19924;-70
2022/01/05 07:10:24;;;;;;;;;;;4.30;99.90;;;;;;8427501;28;19999;-71
2022/01/05 07:14:26;;;;;;;;;;;4.30;99.90;;;;;;8419907;28;19928;-70
2022/01/05 07:18:28;;;;;;;;;;;4.40;99.90;;;;;;8431841;28;19931;-70
2022/01/05 07:22:29;;;;;;;;;;;4.40;99.90;;;;;;8423067;28;20375;-70
2022/01/05 07:26:33;;;;;;;;;;;4.50;99.90;;;;;;8420963;28;19969;-70
2022/01/05 07:30:35;;;;;;;;;;;4.60;99.90;;;;;;8405773;28;20002;-70
2022/01/05 07:34:36;;;;;;;;;;;4.60;99.90;;;;;;8419851;28;20079;-70
2022/01/05 07:38:38;;;;;;;;;;;4.70;99.90;;;;;;8412603;28;20375;-70
2022/01/05 07:42:40;;;;;;;;;;;4.70;99.90;;;;;;8427213;28;19936;-70
2022/01/05 07:46:42;;;;;;;;;;;4.70;99.90;;;;;;8404664;28;19928;-70
2022/01/05 07:50:43;;;;;;;;;;;4.60;99.90;;;;;;8386593;28;19966;-70
2022/01/05 07:54:46;;;;;;;;;;;4.70;99.90;;;;;;8397320;28;20011;-70
2022/01/05 07:58:49;;;;;;;;;;;4.70;99.90;;;;;;8395116;28;20035;-70
2022/01/05 08:02:50;;;;;;;;;;;4.60;99.90;;;;;;8392333;28;19968;-70
2022/01/05 08:06:52;;;;;;;;;;;4.60;99.90;;;;;;8394582;28;19931;-70
2022/01/05 08:10:54;;;;;;;;;;;4.60;99.90;;;;;;8392552;28;20019;-70
2022/01/05 08:14:56;;;;;;;;;;;4.60;99.90;;;;;;8385059;28;19932;-70
2022/01/05 08:18:57;;;;;;;;;;;4.60;99.90;;;;;;8392121;28;19964;-70
2022/01/05 08:22:59;;;;;;;;;;;4.70;99.90;;;;;;8394661;28;19925;-70
2022/01/05 08:27:01;;;;;;;;;;;4.70;99.90;;;;;;8394757;28;20441;-70
2022/01/05 08:31:03;;;;;;;;;;;4.60;99.90;;;;;;8396542;28;19928;-70
2022/01/05 08:35:05;;;;;;;;;;;4.60;99.90;;;;;;8384438;28;19939;-69
2022/01/05 08:39:06;;;;;;;;;;;4.50;99.90;;;;;;8385324;28;19932;-70
2022/01/05 08:43:09;;;;;;;;;;;4.40;99.90;;;;;;8399661;28;19968;-69
2022/01/05 08:47:10;;;;;;;;;;;4.40;99.90;;;;;;8380647;28;19925;-70
2022/01/05 08:51:12;;;;;;;;;;;4.40;99.90;;;;;;8396614;28;19956;-70
2022/01/05 08:55:16;;;;;;;;;;;4.40;99.90;;;;;;8396062;28;19946;-69
2022/01/05 08:59:17;;;;;;;;;;;4.40;99.90;;;;;;8402252;28;19934;-69
2022/01/05 09:03:19;;;;;;;;;;;4.50;99.90;;;;;;8386995;28;20394;-69
2022/01/05 09:07:21;;;;;;;;;;;4.50;99.90;;;;;;8401124;28;19933;-69
2022/01/05 09:11:23;;;;;;;;;;;4.50;99.90;;;;;;8399279;28;19928;-69
2022/01/05 09:15:25;;;;;;;;;;;4.50;99.90;;;;;;8381563;28;19932;-70
2022/01/05 09:19:28;;;;;;;;;;;4.50;99.90;;;;;;8397705;28;19986;-69
2022/01/05 09:23:30;;;;;;;;;;;4.50;99.90;;;;;;8399341;28;19939;-69
2022/01/05 09:27:31;;;;;;;;;;;4.50;99.90;;;;;;8378062;28;19952;-70
2022/01/05 09:31:33;;;;;;;;;;;4.50;99.90;;;;;;8387574;28;19931;-70
2022/01/05 09:35:35;;;;;;;;;;;4.50;99.90;;;;;;8397348;28;19975;-70
2022/01/05 09:44:01;;;;;;;;;;;4.60;99.90;;;;;;8399847;28;20015;-70
2022/01/05 09:48:06;;;;;;;;;;;4.60;99.90;;;;;;8399132;28;19971;-70
2022/01/05 09:52:09;;;;;;;;;;;4.70;99.90;;;;;;8384210;28;19924;-70
2022/01/05 09:56:11;;;;;;;;;;;4.70;99.90;;;;;;8401616;28;20292;-69
2022/01/05 10:00:14;;;;;;;;;;;4.80;99.90;;;;;;8397490;28;19925;-70
2022/01/05 10:04:16;;;;;;;;;;;4.80;99.90;;;;;;8386990;28;19932;-69
2022/01/05 10:08:17;;;;;;;;;;;4.90;99.90;;;;;;8391464;28;19924;-69
2022/01/05 10:12:20;;;;;;;;;;;4.90;99.90;;;;;;8399850;28;19974;-70
2022/01/05 10:16:22;;;;;;;;;;;4.90;99.90;;;;;;8397686;28;19967;-70
2022/01/05 10:20:23;;;;;;;;;;;4.90;99.90;;;;;;8383825;28;19936;-69
2022/01/05 10:24:45;;;;;;;;;;;5.00;99.90;;;;;;8395886;28;20376;-70
2022/01/05 10:28:47;;;;;;;;;;;5.10;99.90;;;;;;8391448;28;19927;-69
2022/01/05 10:32:54;;;;;;;;;;;5.10;99.90;;;;;;8395339;28;20273;-70
2022/01/05 10:36:57;;;;;;;;;;;5.20;99.90;;;;;;8396255;28;20364;-70
2022/01/05 10:40:58;;;;;;;;;;;5.20;99.90;;;;;;8376141;28;20388;-69
2022/01/05 10:45:02;;;;;;;;;;;5.20;99.90;;;;;;8377944;28;19978;-70
2022/01/05 10:49:04;;;;;;;;;;;5.20;99.90;;;;;;8390603;28;19982;-69
2022/01/05 10:53:08;;;;;;;;;;;5.30;99.90;;;;;;8373372;28;20045;-69
2022/01/05 10:57:12;;;;;;;;;;;5.30;99.90;;;;;;8390550;28;19924;-70
2022/01/05 11:01:27;;;;;;;;;;;5.30;99.90;;;;;;8386785;28;20023;-69
2022/01/05 11:05:28;;;;;;;;;;;5.30;99.90;;;;;;8384803;28;19964;-70
2022/01/05 11:09:31;;;;;;;;;;;5.30;99.90;;;;;;8392542;28;20498;-70
2022/01/05 11:13:50;;;;;;;;;;;5.40;99.90;;;;;;8384363;28;19935;-70
2022/01/05 11:18:11;;;;;;;;;;;5.40;99.90;;;;;;8383058;28;20364;-69
2022/01/05 11:22:17;;;;;;;;;;;5.50;99.90;;;;;;8375602;28;19930;-69
2022/01/05 11:26:18;;;;;;;;;;;5.40;99.90;;;;;;8368124;28;19925;-69
2022/01/05 11:30:20;;;;;;;;;;;5.40;99.90;;;;;;8385960;28;19972;-69
2022/01/05 11:34:22;;;;;;;;;;;5.40;99.90;;;;;;8390433;28;20307;-69
2022/01/05 11:38:23;;;;;;;;;;;5.50;99.90;;;;;;8390664;28;24206;-69
2022/01/05 11:42:33;;;;;;;;;;;5.50;99.90;;;;;;8385545;28;19939;-69
2022/01/05 11:46:35;;;;;;;;;;;5.60;99.90;;;;;;8388650;28;19973;-69
2022/01/05 11:50:42;;;;;;;;;;;5.60;99.90;;;;;;8391452;28;19985;-69
2022/01/05 11:55:04;;;;;;;;;;;5.60;99.90;;;;;;8391031;28;20005;-69
2022/01/05 11:59:17;;;;;;;;;;;5.70;99.90;;;;;;8370505;28;19932;-69
2022/01/05 12:03:37;;;;;;;;;;;5.80;99.90;;;;;;8390423;28;19991;-69
2022/01/05 12:07:43;;;;;;;;;;;5.80;99.90;;;;;;8373452;28;19968;-70
2022/01/05 12:11:45;;;;;;;;;;;5.90;99.90;;;;;;8393025;28;19936;-70
2022/01/05 12:15:56;;;;;;;;;;;6.00;99.90;;;;;;8396428;28;19935;-69
2022/01/05 12:19:57;;;;;;;;;;;6.10;99.90;;;;;;8391792;28;20394;-70
2022/01/05 12:23:59;;;;;;;;;;;6.00;99.90;;;;;;8392343;28;20331;-69
2022/01/05 12:28:02;;;;;;;;;;;6.00;99.90;;;;;;8391271;28;19928;-69
2022/01/05 12:32:04;;;;;;;;;;;6.00;99.90;;;;;;8396838;28;19924;-69
2022/01/05 12:36:06;;;;;;;;;;;6.00;99.90;;;;;;8389004;28;19964;-69
2022/01/05 12:40:27;;;;;;;;;;;5.90;99.90;;;;;;8376387;28;20375;-69
2022/01/05 12:44:30;;;;;;;;;;;5.90;99.90;;;;;;8389774;28;19928;-69
2022/01/05 12:48:32;;;;;;;;;;;6.00;99.90;;;;;;8394321;28;19931;-69
2022/01/05 12:52:37;;;;;;;;;;;6.10;99.90;;;;;;8391974;28;19978;-69
2022/01/05 12:56:59;;;;;;;;;;;6.10;99.90;;;;;;8392400;28;19947;-69
2022/01/05 13:01:04;;;;;;;;;;;6.10;99.90;;;;;;8386663;28;19929;-69
2022/01/05 13:05:08;;;;;;;;;;;6.20;99.90;;;;;;8373379;28;19933;-69
2022/01/05 13:09:12;;;;;;;;;;;6.20;99.90;;;;;;8370608;28;19959;-69
2022/01/05 13:13:13;;;;;;;;;;;6.30;99.90;;;;;;8389268;28;19928;-69
2022/01/05 13:17:20;;;;;;;;;;;6.40;99.90;;;;;;8388616;28;19925;-69
2022/01/05 13:21:21;;;;;;;;;;;6.50;99.90;;;;;;8390534;28;19928;-69
2022/01/05 13:25:25;;;;;;;;;;;6.70;99.90;;;;;;8369608;28;19932;-69
2022/01/05 13:29:30;;;;;;;;;;;6.90;99.90;;;;;;8394974;28;20034;-69
2022/01/05 13:33:31;;;;;;;;;;;7.20;99.90;;;;;;8386840;28;19925;-69
2022/01/05 13:37:33;;;;;;;;;;;7.40;99.90;;;;;;8378122;28;20110;-69
2022/01/05 13:41:35;;;;;;;;;;;7.50;99.90;;;;;;8386414;28;20019;-70
2022/01/05 13:45:48;;;;;;;;;;;7.30;99.90;;;;;;8384556;28;19932;-69
2022/01/05 13:50:08;;;;;;;;;;;7.20;99.90;;;;;;8398575;28;20391;-69
2022/01/05 13:54:10;;;;;;;;;;;7.00;99.90;;;;;;8373239;28;19978;-69
2022/01/05 13:58:20;;;;;;;;;;;6.80;99.90;;;;;;8371247;28;19935;-69
2022/01/05 14:02:22;;;;;;;;;;;6.70;99.90;;;;;;8386451;28;19967;-69
2022/01/05 14:06:27;;;;;;;;;;;6.70;99.90;;;;;;8388424;28;19976;-69
2022/01/05 14:10:30;;;;;;;;;;;6.70;99.90;;;;;;8371651;28;19969;-69
2022/01/05 14:14:32;;;;;;;;;;;6.70;99.90;;;;;;8387885;28;19968;-69
2022/01/05 14:18:42;;;;;;;;;;;6.70;99.90;;;;;;8395780;28;19928;-70
2022/01/05 14:22:44;;;;;;;;;;;6.60;99.90;;;;;;8386249;28;19931;-69
2022/01/05 14:26:47;;;;;;;;;;;6.60;99.90;;;;;;8389663;28;20019;-69
2022/01/05 14:30:49;;;;;;;;;;;6.50;99.90;;;;;;8381549;28;19929;-69
2022/01/05 14:34:53;;;;;;;;;;;6.50;99.90;;;;;;8385099;28;19970;-69
2022/01/05 14:38:59;;;;;;;;;;;6.40;99.90;;;;;;8385664;28;19925;-69
2022/01/05 14:43:02;;;;;;;;;;;6.40;99.90;;;;;;8382185;28;19960;-69
2022/01/05 14:47:06;;;;;;;;;;;6.40;99.90;;;;;;8368102;28;19974;-69
2022/01/05 14:51:09;;;;;;;;;;;6.40;99.90;;;;;;8383922;28;20471;-69
2022/01/05 14:55:10;;;;;;;;;;;6.50;99.90;;;;;;8387451;28;20240;-69
2022/01/05 14:59:12;;;;;;;;;;;6.50;99.90;;;;;;8386991;28;19924;-69
2022/01/05 15:03:14;;;;;;;;;;;6.50;99.90;;;;;;8385852;28;19939;-69
2022/01/05 15:07:15;;;;;;;;;;;6.50;99.90;;;;;;8389017;28;20360;-69
2022/01/05 15:11:17;;;;;;;;;;;6.50;99.90;;;;;;8394572;28;19939;-69
2022/01/05 15:15:19;;;;;;;;;;;6.40;99.90;;;;;;8390838;28;20394;-69
2022/01/05 15:19:20;;;;;;;;;;;6.40;99.90;;;;;;8377167;28;19935;-69
2022/01/05 15:23:22;;;;;;;;;;;6.40;99.90;;;;;;8374023;28;20058;-69
2022/01/05 15:27:24;;;;;;;;;;;6.40;99.90;;;;;;8374502;28;19974;-69
2022/01/05 15:31:25;;;;;;;;;;;6.50;99.90;;;;;;8392329;28;19931;-69
2022/01/05 15:35:27;;;;;;;;;;;6.50;99.90;;;;;;8375822;28;20323;-69
2022/01/05 15:39:29;;;;;;;;;;;6.50;99.90;;;;;;8376646;28;19928;-69
2022/01/05 15:43:30;;;;;;;;;;;6.50;99.90;;;;;;8389593;28;19932;-69
2022/01/05 15:47:32;;;;;;;;;;;6.50;99.90;;;;;;8403823;28;20023;-69
2022/01/05 15:51:34;;;;;;;;;;;6.50;99.90;;;;;;8390044;28;19924;-69
2022/01/05 15:55:53;;;;;;;;;;;6.40;99.90;;;;;;8375523;28;19975;-69
2022/01/05 16:04:15;;;;;;;;;;;6.40;99.90;;;;;;8388943;28;20028;-69
2022/01/05 16:08:17;;;;;;;;;;;6.30;99.90;;;;;;8381225;28;19942;-69
2022/01/05 16:12:18;;;;;;;;;;;6.30;99.90;;;;;;8385442;28;20454;-69
2022/01/05 16:16:20;;;;;;;;;;;6.30;99.90;;;;;;8382390;28;19963;-69
2022/01/05 16:20:22;;;;;;;;;;;6.30;99.90;;;;;;8384611;28;19932;-69
2022/01/05 16:24:24;;;;;;;;;;;6.30;99.90;;;;;;8382075;28;19952;-69
2022/01/05 16:28:26;;;;;;;;;;;6.30;99.90;;;;;;8383444;28;20130;-69
2022/01/05 16:32:28;;;;;;;;;;;6.30;99.90;;;;;;8387490;28;19925;-70
2022/01/05 16:36:31;;;;;;;;;;;6.30;99.90;;;;;;8372985;28;20090;-69
2022/01/05 16:40:36;;;;;;;;;;;6.30;99.90;;;;;;8388298;28;19963;-69
2022/01/05 16:44:37;;;;;;;;;;;6.40;99.90;;;;;;8390112;28;20344;-69
2022/01/05 16:48:41;;;;;;;;;;;6.30;99.90;;;;;;8392601;28;19924;-69
2022/01/05 16:52:42;;;;;;;;;;;6.30;99.90;;;;;;8386803;28;19928;-69
2022/01/05 17:00:52;;;;;;;;;;;6.20;99.90;;;;;;8390360;28;19935;-69
2022/01/05 17:04:53;;;;;;;;;;;6.20;99.90;;;;;;8389691;28;19932;-70
2022/01/05 17:08:55;;;;;;;;;;;6.20;99.90;;;;;;8370643;28;19963;-70
2022/01/05 17:12:57;;;;;;;;;;;6.20;99.90;;;;;;8387801;28;20412;-69
2022/01/05 17:16:59;;;;;;;;;;;6.20;99.90;;;;;;8382047;28;19932;-69
2022/01/05 17:21:00;;;;;;;;;;;6.20;99.90;;;;;;8392982;28;19924;-69
2022/01/05 17:25:04;;;;;;;;;;;6.10;99.90;;;;;;8394763;28;19925;-69
2022/01/05 17:29:06;;;;;;;;;;;6.10;99.90;;;;;;8402380;28;20395;-70
2022/01/05 17:33:08;;;;;;;;;;;6.10;99.90;;;;;;8388682;28;20402;-70
2022/01/05 17:37:09;;;;;;;;;;;6.10;99.90;;;;;;8388081;28;19963;-69
2022/01/05 17:41:12;;;;;;;;;;;6.10;99.90;;;;;;8384618;28;19958;-69
2022/01/05 17:45:13;;;;;;;;;;;6.10;99.90;;;;;;8368697;28;19929;-70
2022/01/05 17:49:17;;;;;;;;;;;6.10;99.90;;;;;;8387513;28;19924;-69
2022/01/05 17:53:19;;;;;;;;;;;6.00;99.90;;;;;;8382493;28;19935;-69
2022/01/05 17:57:20;;;;;;;;;;;6.00;99.90;;;;;;8387668;28;19939;-69
2022/01/05 18:01:22;;;;;;;;;;;6.00;99.90;;;;;;8386889;28;19928;-70
2022/01/05 18:05:24;;;;;;;;;;;6.00;99.90;;;;;;8386651;28;19924;-69
2022/01/05 18:09:28;;;;;;;;;;;6.00;99.90;;;;;;8389460;28;19932;-69
2022/01/05 18:13:30;;;;;;;;;;;5.90;99.90;;;;;;8385327;28;19972;-69
2022/01/05 18:17:31;;;;;;;;;;;5.90;99.90;;;;;;8371627;28;20019;-69
2022/01/05 18:21:33;;;;;;;;;;;5.80;99.90;;;;;;8392242;28;19967;-70
2022/01/05 18:25:35;;;;;;;;;;;5.80;99.90;;;;;;8380364;28;19935;-69
2022/01/05 18:29:36;;;;;;;;;;;5.80;99.90;;;;;;8393331;28;20380;-69
2022/01/05 18:33:38;;;;;;;;;;;5.70;99.90;;;;;;8387452;28;19952;-69
2022/01/05 18:37:40;;;;;;;;;;;5.70;99.90;;;;;;8365920;28;19928;-69
2022/01/05 18:41:42;;;;;;;;;;;5.70;99.90;;;;;;8388458;28;20650;-69
2022/01/05 18:45:43;;;;;;;;;;;5.60;99.90;;;;;;8398554;28;19956;-70
2022/01/05 18:49:45;;;;;;;;;;;5.60;99.90;;;;;;8373186;28;19982;-69
2022/01/05 18:53:47;;;;;;;;;;;5.50;99.90;;;;;;8409175;28;20050;-69
2022/01/05 18:57:49;;;;;;;;;;;5.50;99.90;;;;;;8385295;28;19947;-69
2022/01/05 19:01:51;;;;;;;;;;;5.60;99.90;;;;;;8391645;28;20949;-70
2022/01/05 19:05:53;;;;;;;;;;;5.60;99.90;;;;;;8389935;28;19928;-69
2022/01/05 19:09:54;;;;;;;;;;;5.50;99.90;;;;;;8392310;28;19924;-69
2022/01/05 19:13:56;;;;;;;;;;;5.50;99.90;;;;;;8392206;28;20257;-69
2022/01/05 19:17:57;;;;;;;;;;;5.40;99.90;;;;;;8378923;28;19970;-69
2022/01/05 19:21:59;;;;;;;;;;;5.40;99.90;;;;;;8378416;28;19931;-69
2022/01/05 19:26:01;;;;;;;;;;;5.30;99.90;;;;;;8373483;28;19982;-69
2022/01/05 19:30:03;;;;;;;;;;;5.30;99.90;;;;;;8392086;28;19968;-70
2022/01/05 19:34:05;;;;;;;;;;;5.20;99.90;;;;;;8391226;28;20027;-69
2022/01/05 19:38:07;;;;;;;;;;;5.20;99.90;;;;;;8393167;28;20031;-69
2022/01/05 19:42:09;;;;;;;;;;;5.20;99.90;;;;;;8391944;28;19924;-69
2022/01/05 19:46:11;;;;;;;;;;;5.20;99.90;;;;;;8385595;28;19997;-69
2022/01/05 19:50:17;;;;;;;;;;;5.20;99.90;;;;;;8387852;28;19931;-69
2022/01/05 19:54:28;;;;;;;;;;;5.10;99.90;;;;;;8387777;28;19939;-69
2022/01/05 19:58:29;;;;;;;;;;;5.00;99.90;;;;;;8387196;28;20368;-69
2022/01/05 20:02:31;;;;;;;;;;;5.00;99.90;;;;;;8390651;28;19967;-69
2022/01/05 20:06:33;;;;;;;;;;;4.90;99.90;;;;;;8389808;28;20188;-69
2022/01/05 20:10:35;;;;;;;;;;;4.80;99.90;;;;;;8385695;28;19936;-69
2022/01/05 20:14:39;;;;;;;;;;;4.70;99.90;;;;;;8384646;28;20005;-69
2022/01/05 20:19:00;;;;;;;;;;;4.60;99.90;;;;;;8386005;28;19924;-69
2022/01/05 20:23:04;;;;;;;;;;;4.50;99.90;;;;;;8385972;28;19940;-69
2022/01/05 20:27:06;;;;;;;;;;;4.50;99.90;;;;;;8369439;28;20465;-69
2022/01/05 20:31:07;;;;;;;;;;;4.40;99.90;;;;;;8379975;28;19928;-69
2022/01/05 20:35:09;;;;;;;;;;;4.40;99.90;;;;;;8384859;28;20466;-70
2022/01/05 20:39:10;;;;;;;;;;;4.40;99.90;;;;;;8387207;28;19925;-69
2022/01/05 20:43:12;;;;;;;;;;;4.40;99.90;;;;;;8374148;28;19942;-70
2022/01/05 20:47:14;;;;;;;;;;;4.40;99.90;;;;;;8386742;28;19932;-69
2022/01/05 20:51:16;;;;;;;;;;;4.40;99.90;;;;;;8380014;28;20265;-70
2022/01/05 20:55:18;;;;;;;;;;;4.40;99.90;;;;;;8387289;28;20300;-69
2022/01/05 20:59:20;;;;;;;;;;;4.40;99.90;;;;;;8394579;28;19928;-69
2022/01/05 21:03:21;;;;;;;;;;;4.40;99.90;;;;;;8398471;28;20007;-70
2022/01/05 21:07:23;;;;;;;;;;;4.40;99.90;;;;;;8400040;28;19939;-69
2022/01/05 21:11:25;;;;;;;;;;;4.40;99.90;;;;;;8381289;28;19964;-69
2022/01/05 21:15:28;;;;;;;;;;;4.40;99.90;;;;;;8398430;28;19938;-70
2022/01/05 21:19:29;;;;;;;;;;;4.40;99.90;;;;;;8403940;28;19975;-69
2022/01/05 21:23:31;;;;;;;;;;;4.40;99.90;;;;;;8383580;28;20023;-69
2022/01/05 21:27:32;;;;;;;;;;;4.40;99.90;;;;;;8382082;28;19965;-70
2022/01/05 21:31:34;;;;;;;;;;;4.30;99.90;;;;;;8385401;28;19931;-69
2022/01/05 21:35:36;;;;;;;;;;;4.30;99.90;;;;;;8400717;28;19928;-69
2022/01/05 21:39:38;;;;;;;;;;;4.20;99.90;;;;;;8402389;28;20492;-69
2022/01/05 21:43:42;;;;;;;;;;;4.10;99.90;;;;;;8398406;28;20035;-69
2022/01/05 21:47:44;;;;;;;;;;;4.00;99.90;;;;;;8385101;28;20009;-69
2022/01/05 21:51:45;;;;;;;;;;;3.90;99.90;;;;;;8376692;28;20301;-69
2022/01/05 21:55:49;;;;;;;;;;;3.80;99.90;;;;;;8368861;28;22305;-69
2022/01/05 21:59:50;;;;;;;;;;;3.80;99.90;;;;;;8381921;28;19929;-69
2022/01/05 22:03:52;;;;;;;;;;;3.80;99.90;;;;;;8395629;28;20368;-69
2022/01/05 22:07:55;;;;;;;;;;;3.80;99.90;;;;;;8399498;28;19935;-69
2022/01/05 22:11:57;;;;;;;;;;;3.70;99.90;;;;;;8401627;28;20015;-69
2022/01/05 22:16:00;;;;;;;;;;;3.60;99.90;;;;;;8395032;28;19968;-69
2022/01/05 22:20:03;;;;;;;;;;;3.70;99.90;;;;;;8388184;28;19947;-69
2022/01/05 22:24:05;;;;;;;;;;;3.70;99.90;;;;;;8404476;28;20019;-70
2022/01/05 22:28:07;;;;;;;;;;;3.70;99.90;;;;;;8400962;28;19928;-69
2022/01/05 22:32:08;;;;;;;;;;;3.70;99.90;;;;;;8411850;28;20366;-69
2022/01/05 22:36:10;;;;;;;;;;;3.70;99.90;;;;;;8397551;28;19928;-69
2022/01/05 22:40:13;;;;;;;;;;;3.70;99.90;;;;;;8418717;28;19951;-69
2022/01/05 22:44:14;;;;;;;;;;;3.70;99.90;;;;;;8400753;28;19933;-69
2022/01/05 22:48:16;;;;;;;;;;;3.60;99.90;;;;;;8397116;28;20057;-69
2022/01/05 22:52:18;;;;;;;;;;;3.60;99.90;;;;;;8401816;28;19925;-69
2022/01/05 22:56:35;;;;;;;;;;;3.50;99.90;;;;;;8405483;28;19928;-69
2022/01/05 23:00:38;;;;;;;;;;;3.50;99.90;;;;;;8382533;28;19976;-69
2022/01/05 23:04:40;;;;;;;;;;;3.40;99.90;;;;;;8391251;28;19932;-69
2022/01/05 23:08:41;;;;;;;;;;;3.40;99.90;;;;;;8395544;28;19931;-69
2022/01/05 23:12:43;;;;;;;;;;;3.30;99.90;;;;;;8380119;28;19932;-69
2022/01/05 23:16:45;;;;;;;;;;;3.30;99.90;;;;;;8399761;28;19963;-69
2022/01/05 23:20:47;;;;;;;;;;;3.30;99.90;;;;;;8398925;28;19935;-69
2022/01/05 23:24:48;;;;;;;;;;;3.30;99.90;;;;;;8395958;28;19924;-69
2022/01/05 23:28:50;;;;;;;;;;;3.20;99.90;;;;;;8400894;28;19972;-69
2022/01/05 23:32:56;;;;;;;;;;;3.20;99.90;;;;;;8391853;28;19931;-69
2022/01/05 23:36:58;;;;;;;;;;;3.20;99.90;;;;;;8400565;28;19947;-69
2022/01/05 23:40:59;;;;;;;;;;;3.10;99.90;;;;;;8398481;28;19959;-69
2022/01/05 23:45:01;;;;;;;;;;;3.10;99.90;;;;;;8400445;28;19928;-69
2022/01/05 23:49:02;;;;;;;;;;;3.20;99.90;;;;;;8406686;28;20415;-69
2022/01/05 23:53:04;;;;;;;;;;;3.20;99.90;;;;;;8406428;28;19928;-69
2022/01/05 23:57:07;;;;;;;;;;;3.20;99.90;;;;;;8402084;28;19935;-69
